Time;durP1;ratioP1;P1;durP2;ratioP2;P2;SDS_P1;SDS_P2;PMS_P1;PMS_P2;Temp;Humidity;BMP_temperature;BMP_pressure;BME280_temperature;BME280_humidity;BME280_pressure;Samples;Min_cycle;Max_cycle;Signal;HPM_P1;HPM_P2
2023/06/07 00:01:42;;;;;;;30.00;19.00;;;;;;;-128.00;-1.00;-1.00;102064;1259;1004294;-80
2023/06/07 00:04:11;;;;;;;29.30;19.20;;;;;;;-128.00;-1.00;-1.00;102124;1260;1004410;-81
2023/06/07 00:06:39;;;;;;;;;;;;;;;-128.00;-1.00;-1.00;102178;1259;1046388;-79
2023/06/07 00:09:07;;;;;;;34.70;20.70;;;;;;;-128.00;-1.00;-1.00;102138;1260;1004443;-79
2023/06/07 00:11:34;;;;;;;37.20;23.70;;;;;;;-128.00;-1.00;-1.00;102143;1264;1004901;-81
2023/06/07 00:14:01;;;;;;;47.50;24.00;;;;;;;-128.00;-1.00;-1.00;102061;1259;1005849;-81
2023/06/07 00:16:28;;;;;;;41.10;23.60;;;;;;;-128.00;-1.00;-1.00;102060;1259;1004427;-79
2023/06/07 00:18:55;;;;;;;54.60;25.30;;;;;;;-128.00;-1.00;-1.00;102147;1259;1004548;-79
2023/06/07 00:21:22;;;;;;;53.90;26.50;;;;;;;-128.00;-1.00;-1.00;102119;1259;1004093;-81
2023/06/07 00:23:48;;;;;;;52.60;27.60;;;;;;;-128.00;-1.00;-1.00;102128;1258;1004495;-79
2023/06/07 00:26:15;;;;;;;49.20;26.30;;;;;;;-128.00;-1.00;-1.00;102154;1259;1005256;-79
2023/06/07 00:28:41;;;;;;;32.70;20.50;;;;;;;-128.00;-1.00;-1.00;102130;1259;1004252;-82
2023/06/07 00:31:08;;;;;;;35.20;20.10;;;;;;;-128.00;-1.00;-1.00;102156;1263;1004143;-79
2023/06/07 00:33:35;;;;;;;37.90;21.80;;;;;;;-128.00;-1.00;-1.00;102155;1259;1004123;-82
2023/06/07 00:36:01;;;;;;;43.20;23.70;;;;;;;-128.00;-1.00;-1.00;102181;1259;1005268;-80
2023/06/07 00:38:28;;;;;;;41.20;23.70;;;;;;;-128.00;-1.00;-1.00;102133;1264;1005139;-79
2023/06/07 00:40:54;;;;;;;44.20;23.70;;;;;;;-128.00;-1.00;-1.00;102117;1259;1004234;-82
2023/06/07 00:43:21;;;;;;;38.00;23.90;;;;;;;-128.00;-1.00;-1.00;102161;1263;1005010;-82
2023/06/07 00:45:47;;;;;;;42.20;26.50;;;;;;;-128.00;-1.00;-1.00;102163;1259;1005931;-80
2023/06/07 00:48:14;;;;;;;44.10;24.80;;;;;;;-128.00;-1.00;-1.00;102124;1259;1006766;-82
2023/06/07 00:50:40;;;;;;;41.90;23.70;;;;;;;-128.00;-1.00;-1.00;102148;1259;1004697;-79
2023/06/07 00:53:07;;;;;;;41.40;24.00;;;;;;;-128.00;-1.00;-1.00;102088;1260;1004428;-79
2023/06/07 00:55:33;;;;;;;34.70;21.30;;;;;;;-128.00;-1.00;-1.00;102098;1259;1004571;-82
2023/06/07 00:57:59;;;;;;;31.30;19.00;;;;;;;-128.00;-1.00;-1.00;102135;1259;1005274;-80
2023/06/07 01:00:26;;;;;;;27.70;17.80;;;;;;;-128.00;-1.00;-1.00;102082;1260;1004590;-81
2023/06/07 01:02:52;;;;;;;27.80;18.40;;;;;;;-128.00;-1.00;-1.00;102156;1259;1004820;-82
2023/06/07 01:05:20;;;;;;;25.20;17.60;;;;;;;-128.00;-1.00;-1.00;102312;1260;1005455;-81
2023/06/07 01:07:47;;;;;;;29.10;18.20;;;;;;;-128.00;-1.00;-1.00;102142;1263;1047186;-79
2023/06/07 01:10:14;;;;;;;31.50;18.70;;;;;;;-128.00;-1.00;-1.00;102127;1259;1005033;-82
2023/06/07 01:12:44;;;;;;;26.10;19.10;;;;;;;-128.00;-1.00;-1.00;102128;1259;1004514;-82
2023/06/07 01:15:12;;;;;;;32.40;19.30;;;;;;;-128.00;-1.00;-1.00;102154;1259;1061859;-82
2023/06/07 01:17:41;;;;;;;27.50;19.50;;;;;;;-128.00;-1.00;-1.00;102145;1259;1004641;-79
2023/06/07 01:20:13;;;;;;;30.90;19.60;;;;;;;-128.00;-1.00;-1.00;102083;1260;1046092;-79
2023/06/07 01:22:49;;;;;;;34.40;20.00;;;;;;;-128.00;-1.00;-1.00;102171;1260;1065995;-80
2023/06/07 01:25:16;;;;;;;30.30;20.20;;;;;;;-128.00;-1.00;-1.00;102230;1259;1005388;-80
2023/06/07 01:27:44;;;;;;;28.90;19.90;;;;;;;-128.00;-1.00;-1.00;102153;1260;1004324;-82
2023/06/07 01:30:10;;;;;;;24.30;19.00;;;;;;;-128.00;-1.00;-1.00;102179;1259;1005053;-81
2023/06/07 01:32:37;;;;;;;31.30;18.70;;;;;;;-128.00;-1.00;-1.00;102077;1261;1004473;-82
2023/06/07 01:35:04;;;;;;;30.00;20.80;;;;;;;-128.00;-1.00;-1.00;102082;1267;1004885;-82
2023/06/07 01:37:30;;;;;;;30.80;19.70;;;;;;;-128.00;-1.00;-1.00;102046;1259;1004503;-80
2023/06/07 01:39:57;;;;;;;31.70;19.60;;;;;;;-128.00;-1.00;-1.00;102041;1259;1004073;-80
2023/06/07 01:42:23;;;;;;;26.50;18.30;;;;;;;-128.00;-1.00;-1.00;102042;1262;1004824;-81
2023/06/07 01:44:50;;;;;;;30.60;18.80;;;;;;;-128.00;-1.00;-1.00;102099;1259;1004934;-81
2023/06/07 01:47:16;;;;;;;27.60;19.90;;;;;;;-128.00;-1.00;-1.00;102131;1268;1005897;-78
2023/06/07 01:49:42;;;;;;;36.50;23.40;;;;;;;-128.00;-1.00;-1.00;102070;1265;1004748;-83
2023/06/07 01:52:09;;;;;;;29.20;18.20;;;;;;;-128.00;-1.00;-1.00;102114;1260;1005159;-80
2023/06/07 01:54:36;;;;;;;27.30;17.90;;;;;;;-128.00;-1.00;-1.00;102097;1265;1004804;-79
2023/06/07 01:57:04;;;;;;;27.50;17.70;;;;;;;-128.00;-1.00;-1.00;102131;1265;1005167;-81
2023/06/07 01:59:34;;;;;;;24.80;17.50;;;;;;;-128.00;-1.00;-1.00;102120;1265;1062054;-82
2023/06/07 02:02:13;;;;;;;24.80;16.50;;;;;;;-128.00;-1.00;-1.00;102214;1260;1061492;-80
2023/06/07 02:04:41;;;;;;;;;;;;;;;-128.00;-1.00;-1.00;102163;1262;1061519;-82
2023/06/07 02:07:08;;;;;;;21.30;15.60;;;;;;;-128.00;-1.00;-1.00;102205;1259;1004720;-80
2023/06/07 02:09:35;;;;;;;27.00;15.70;;;;;;;-128.00;-1.00;-1.00;102168;1259;1003929;-80
2023/06/07 02:12:03;;;;;;;34.50;18.40;;;;;;;-128.00;-1.00;-1.00;102136;1260;1004075;-80
2023/06/07 02:14:29;;;;;;;32.40;19.20;;;;;;;-128.00;-1.00;-1.00;102235;1260;1003737;-82
2023/06/07 02:16:55;;;;;;;29.10;18.90;;;;;;;-128.00;-1.00;-1.00;102151;1259;1004329;-82
2023/06/07 02:19:24;;;;;;;27.90;19.80;;;;;;;-128.00;-1.00;-1.00;102204;1259;1005105;-80
2023/06/07 02:21:50;;;;;;;40.40;19.90;;;;;;;-128.00;-1.00;-1.00;102230;1263;1004172;-80
2023/06/07 02:24:17;;;;;;;31.20;19.40;;;;;;;-128.00;-1.00;-1.00;102250;1259;1004279;-82
2023/06/07 02:26:43;;;;;;;35.60;19.80;;;;;;;-128.00;-1.00;-1.00;102127;1259;1004307;-82
2023/06/07 02:29:10;;;;;;;33.20;19.50;;;;;;;-128.00;-1.00;-1.00;102167;1259;1003885;-81
2023/06/07 02:31:37;;;;;;;34.50;20.90;;;;;;;-128.00;-1.00;-1.00;102155;1265;1003932;-79
2023/06/07 02:34:03;;;;;;;30.00;20.10;;;;;;;-128.00;-1.00;-1.00;102539;1260;1004384;-80
2023/06/07 02:36:33;;;;;;;30.10;19.70;;;;;;;-128.00;-1.00;-1.00;102263;1259;1005209;-79
2023/06/07 02:39:00;;;;;;;26.80;18.70;;;;;;;-128.00;-1.00;-1.00;102335;1259;1059543;-80
2023/06/07 02:41:26;;;;;;;32.30;20.40;;;;;;;-128.00;-1.00;-1.00;102113;1260;1004737;-81
2023/06/07 02:43:53;;;;;;;30.30;20.00;;;;;;;-128.00;-1.00;-1.00;102108;1263;1003671;-80
2023/06/07 02:46:19;;;;;;;31.00;20.60;;;;;;;-128.00;-1.00;-1.00;102436;1264;1004515;-82
2023/06/07 02:48:53;;;;;;;33.80;20.10;;;;;;;-128.00;-1.00;-1.00;102316;1263;1005853;-82
2023/06/07 02:51:19;;;;;;;31.60;19.90;;;;;;;-128.00;-1.00;-1.00;102468;1259;1060962;-82
2023/06/07 02:53:49;;;;;;;32.30;19.20;;;;;;;-128.00;-1.00;-1.00;102281;1260;1004305;-81
2023/06/07 02:56:16;;;;;;;33.40;20.70;;;;;;;-128.00;-1.00;-1.00;102481;1259;1047034;-82
2023/06/07 02:58:42;;;;;;;31.00;19.90;;;;;;;-128.00;-1.00;-1.00;102435;1264;1005099;-82
2023/06/07 03:01:09;;;;;;;30.50;19.40;;;;;;;-128.00;-1.00;-1.00;102443;1263;1004701;-82
2023/06/07 03:03:36;;;;;;;32.70;18.60;;;;;;;-128.00;-1.00;-1.00;102439;1259;1005325;-79
2023/06/07 03:06:04;;;;;;;31.20;19.00;;;;;;;-128.00;-1.00;-1.00;103813;1259;1005147;-80
2023/06/07 03:08:31;;;;;;;29.80;18.90;;;;;;;-128.00;-1.00;-1.00;105199;1259;1004762;-80
2023/06/07 03:11:04;;;;;;;30.30;21.40;;;;;;;-128.00;-1.00;-1.00;96964;1260;10137694;-77
2023/06/07 03:13:45;;;;;;;34.60;21.10;;;;;;;-128.00;-1.00;-1.00;102039;1259;1058742;-82
2023/06/07 03:16:12;;;;;;;32.10;20.50;;;;;;;-128.00;-1.00;-1.00;104236;1260;1058566;-80
2023/06/07 03:18:38;;;;;;;30.20;20.50;;;;;;;-128.00;-1.00;-1.00;102355;1259;1004323;-82
2023/06/07 03:21:11;;;;;;;30.20;20.30;;;;;;;-128.00;-1.00;-1.00;102491;1260;1049458;-80
2023/06/07 03:23:37;;;;;;;29.90;20.50;;;;;;;-128.00;-1.00;-1.00;102417;1263;1004365;-80
2023/06/07 03:26:05;;;;;;;32.90;19.30;;;;;;;-128.00;-1.00;-1.00;102457;1265;1004346;-79
2023/06/07 03:28:31;;;;;;;37.20;20.60;;;;;;;-128.00;-1.00;-1.00;102447;1259;1005147;-82
2023/06/07 03:30:57;;;;;;;35.90;21.60;;;;;;;-128.00;-1.00;-1.00;102414;1263;1004375;-82
2023/06/07 03:33:24;;;;;;;36.10;21.60;;;;;;;-128.00;-1.00;-1.00;102505;1260;1005035;-80
2023/06/07 03:35:50;;;;;;;30.60;20.70;;;;;;;-128.00;-1.00;-1.00;102648;1260;1006207;-82
2023/06/07 03:38:17;;;;;;;35.20;20.90;;;;;;;-128.00;-1.00;-1.00;102530;1262;1003942;-79
2023/06/07 03:40:43;;;;;;;35.00;22.30;;;;;;;-128.00;-1.00;-1.00;102532;1260;1004649;-79
2023/06/07 03:43:10;;;;;;;32.60;20.50;;;;;;;-128.00;-1.00;-1.00;102492;1259;1003875;-79
2023/06/07 03:45:36;;;;;;;36.60;21.40;;;;;;;-128.00;-1.00;-1.00;102505;1262;1003805;-83
2023/06/07 03:48:03;;;;;;;37.90;22.60;;;;;;;-128.00;-1.00;-1.00;102517;1260;1004358;-82
2023/06/07 03:50:29;;;;;;;30.80;20.10;;;;;;;-128.00;-1.00;-1.00;102381;1264;1005303;-82
2023/06/07 03:52:56;;;;;;;28.90;19.30;;;;;;;-128.00;-1.00;-1.00;102443;1260;1004719;-80
2023/06/07 03:55:22;;;;;;;24.90;17.90;;;;;;;-128.00;-1.00;-1.00;102437;1259;1004469;-82
2023/06/07 03:57:48;;;;;;;26.80;17.90;;;;;;;-128.00;-1.00;-1.00;102494;1259;1004728;-82
2023/06/07 04:00:17;;;;;;;26.90;17.70;;;;;;;-128.00;-1.00;-1.00;102469;1263;1004976;-79
2023/06/07 04:02:43;;;;;;;24.10;16.50;;;;;;;-128.00;-1.00;-1.00;102322;1260;1062746;-82
2023/06/07 04:05:10;;;;;;;25.80;17.70;;;;;;;-128.00;-1.00;-1.00;102381;1259;1004416;-82
2023/06/07 04:07:36;;;;;;;20.60;16.70;;;;;;;-128.00;-1.00;-1.00;102438;1259;1005053;-82
2023/06/07 04:10:03;;;;;;;20.90;15.40;;;;;;;-128.00;-1.00;-1.00;102319;1264;1004801;-80
2023/06/07 04:12:30;;;;;;;21.20;15.10;;;;;;;-128.00;-1.00;-1.00;102493;1260;1004352;-80
2023/06/07 04:14:56;;;;;;;24.60;16.60;;;;;;;-128.00;-1.00;-1.00;102352;1259;1005526;-80
2023/06/07 04:17:23;;;;;;;22.60;16.10;;;;;;;-128.00;-1.00;-1.00;102348;1260;1004159;-79
2023/06/07 04:19:54;;;;;;;28.50;16.90;;;;;;;-128.00;-1.00;-1.00;102136;1263;1005710;-82
2023/06/07 04:22:21;;;;;;;28.10;18.00;;;;;;;-128.00;-1.00;-1.00;102244;1260;1064246;-82
2023/06/07 04:24:48;;;;;;;30.90;20.10;;;;;;;-128.00;-1.00;-1.00;102276;1263;1003868;-80
2023/06/07 04:27:17;;;;;;;31.70;19.70;;;;;;;-128.00;-1.00;-1.00;102342;1259;1003871;-80
2023/06/07 04:29:48;;;;;;;33.10;20.40;;;;;;;-128.00;-1.00;-1.00;102496;1259;1047034;-82
2023/06/07 04:32:18;;;;;;;36.30;23.10;;;;;;;-128.00;-1.00;-1.00;102439;1259;1047308;-80
2023/06/07 04:34:46;;;;;;;36.50;22.80;;;;;;;-128.00;-1.00;-1.00;102636;1263;1064232;-82
2023/06/07 04:37:12;;;;;;;33.10;22.50;;;;;;;-128.00;-1.00;-1.00;102642;1263;1003809;-79
2023/06/07 04:39:40;;;;;;;33.90;20.70;;;;;;;-128.00;-1.00;-1.00;102637;1264;1005074;-82
2023/06/07 04:42:07;;;;;;;35.10;21.10;;;;;;;-128.00;-1.00;-1.00;102638;1259;1005257;-82
2023/06/07 04:44:36;;;;;;;28.00;20.00;;;;;;;-128.00;-1.00;-1.00;102573;1261;1004929;-83
2023/06/07 04:47:03;;;;;;;34.00;20.90;;;;;;;-128.00;-1.00;-1.00;102657;1265;1064690;-80
2023/06/07 04:49:33;;;;;;;37.40;19.90;;;;;;;-128.00;-1.00;-1.00;102296;1263;1004328;-82
2023/06/07 04:52:02;;;;;;;30.10;18.70;;;;;;;-128.00;-1.00;-1.00;102316;1266;1062448;-80
2023/06/07 04:54:29;;;;;;;33.10;20.20;;;;;;;-128.00;-1.00;-1.00;102182;1267;1049450;-82
2023/06/07 04:56:56;;;;;;;26.30;18.60;;;;;;;-128.00;-1.00;-1.00;102287;1263;1003702;-81
2023/06/07 04:59:24;;;;;;;27.70;19.30;;;;;;;-128.00;-1.00;-1.00;102308;1259;1005247;-80
2023/06/07 05:01:51;;;;;;;40.80;21.10;;;;;;;-128.00;-1.00;-1.00;102331;1260;1004174;-80
2023/06/07 05:04:18;;;;;;;34.20;20.80;;;;;;;-128.00;-1.00;-1.00;102473;1259;1005201;-81
2023/06/07 05:06:44;;;;;;;38.90;21.10;;;;;;;-128.00;-1.00;-1.00;102389;1263;1005394;-81
2023/06/07 05:09:11;;;;;;;32.20;19.80;;;;;;;-128.00;-1.00;-1.00;102399;1260;1004234;-81
2023/06/07 05:11:37;;;;;;;31.00;21.00;;;;;;;-128.00;-1.00;-1.00;102303;1259;1005193;-80
2023/06/07 05:14:04;;;;;;;32.30;21.00;;;;;;;-128.00;-1.00;-1.00;102436;1260;1004707;-82
2023/06/07 05:16:32;;;;;;;28.70;19.30;;;;;;;-128.00;-1.00;-1.00;102451;1260;1004751;-82
2023/06/07 05:18:58;;;;;;;35.80;20.70;;;;;;;-128.00;-1.00;-1.00;102405;1259;1004557;-79
2023/06/07 05:21:24;;;;;;;27.30;17.60;;;;;;;-128.00;-1.00;-1.00;102352;1264;1004872;-82
2023/06/07 05:23:51;;;;;;;24.90;18.80;;;;;;;-128.00;-1.00;-1.00;102401;1263;1004373;-81
2023/06/07 05:26:18;;;;;;;24.90;18.00;;;;;;;-128.00;-1.00;-1.00;101978;1260;1004993;-80
2023/06/07 05:28:44;;;;;;;25.50;18.50;;;;;;;-128.00;-1.00;-1.00;102261;1260;1004540;-80
2023/06/07 05:31:11;;;;;;;25.20;17.40;;;;;;;-128.00;-1.00;-1.00;102318;1263;1004736;-79
2023/06/07 05:33:38;;;;;;;28.10;17.20;;;;;;;-128.00;-1.00;-1.00;102472;1273;1005065;-82
2023/06/07 05:36:05;;;;;;;23.50;15.90;;;;;;;-128.00;-1.00;-1.00;102405;1262;1004633;-79
2023/06/07 05:38:32;;;;;;;23.10;16.30;;;;;;;-128.00;-1.00;-1.00;102436;1263;1004753;-79
2023/06/07 05:40:58;;;;;;;21.10;16.00;;;;;;;-128.00;-1.00;-1.00;102418;1262;1003913;-82
2023/06/07 05:43:25;;;;;;;19.70;15.10;;;;;;;-128.00;-1.00;-1.00;102344;1265;1005443;-81
2023/06/07 05:45:51;;;;;;;22.20;16.50;;;;;;;-128.00;-1.00;-1.00;102421;1260;1004211;-79
2023/06/07 05:48:18;;;;;;;25.00;17.20;;;;;;;-128.00;-1.00;-1.00;102374;1259;1005275;-82
2023/06/07 05:50:44;;;;;;;20.90;16.10;;;;;;;-128.00;-1.00;-1.00;102353;1261;1004744;-81
2023/06/07 05:53:10;;;;;;;20.90;14.90;;;;;;;-128.00;-1.00;-1.00;102318;1259;1005006;-79
2023/06/07 05:55:37;;;;;;;22.90;14.70;;;;;;;-128.00;-1.00;-1.00;102356;1261;1003815;-80
2023/06/07 05:58:03;;;;;;;23.10;16.50;;;;;;;-128.00;-1.00;-1.00;102384;1264;1004848;-83
2023/06/07 06:00:30;;;;;;;17.50;14.30;;;;;;;-128.00;-1.00;-1.00;102353;1260;1060495;-79
2023/06/07 06:02:56;;;;;;;16.50;12.90;;;;;;;-128.00;-1.00;-1.00;102918;1263;1003993;-82
2023/06/07 06:05:27;;;;;;;17.30;14.00;;;;;;;-128.00;-1.00;-1.00;102890;1263;1004142;-82
2023/06/07 06:07:55;;;;;;;19.90;13.30;;;;;;;-128.00;-1.00;-1.00;102843;1265;1049062;-82
2023/06/07 06:10:22;;;;;;;16.50;14.00;;;;;;;-128.00;-1.00;-1.00;102833;1258;1004343;-82
2023/06/07 06:12:48;;;;;;;18.30;13.00;;;;;;;-128.00;-1.00;-1.00;102764;1264;1004686;-79
2023/06/07 06:15:15;;;;;;;15.60;12.40;;;;;;;-128.00;-1.00;-1.00;102688;1259;1003753;-82
2023/06/07 06:17:41;;;;;;;16.10;13.40;;;;;;;-128.00;-1.00;-1.00;102728;1260;1004813;-82
2023/06/07 06:20:09;;;;;;;17.20;13.30;;;;;;;-128.00;-1.00;-1.00;102966;1263;1005101;-80
2023/06/07 06:22:35;;;;;;;16.60;11.40;;;;;;;-128.00;-1.00;-1.00;102718;1262;1005364;-82
2023/06/07 06:25:02;;;;;;;12.40;10.40;;;;;;;-128.00;-1.00;-1.00;102864;1263;1005015;-80
2023/06/07 06:27:28;;;;;;;12.40;10.90;;;;;;;-128.00;-1.00;-1.00;103113;1263;1003919;-82
2023/06/07 06:29:55;;;;;;;13.10;10.80;;;;;;;-128.00;-1.00;-1.00;102961;1260;1006210;-82
2023/06/07 06:32:21;;;;;;;14.70;13.10;;;;;;;-128.00;-1.00;-1.00;103011;1263;1004701;-82
2023/06/07 06:34:48;;;;;;;13.70;10.80;;;;;;;-128.00;-1.00;-1.00;103006;1260;1005080;-79
2023/06/07 06:37:14;;;;;;;24.30;21.90;;;;;;;-128.00;-1.00;-1.00;103212;1263;1004523;-83
2023/06/07 06:39:40;;;;;;;14.60;11.00;;;;;;;-128.00;-1.00;-1.00;103014;1264;1004602;-80
2023/06/07 06:42:07;;;;;;;12.00;10.80;;;;;;;-128.00;-1.00;-1.00;103381;1258;1003791;-82
2023/06/07 06:44:33;;;;;;;12.20;9.80;;;;;;;-128.00;-1.00;-1.00;103422;1261;1004476;-80
2023/06/07 06:47:00;;;;;;;12.60;10.50;;;;;;;-128.00;-1.00;-1.00;103683;1263;1003773;-83
2023/06/07 06:49:27;;;;;;;11.00;9.80;;;;;;;-128.00;-1.00;-1.00;103831;1263;1005432;-82
2023/06/07 06:51:53;;;;;;;11.70;9.90;;;;;;;-128.00;-1.00;-1.00;103836;1262;1005274;-82
2023/06/07 06:54:20;;;;;;;10.50;9.50;;;;;;;-128.00;-1.00;-1.00;103655;1259;1005481;-80
2023/06/07 06:56:47;;;;;;;10.00;8.70;;;;;;;-128.00;-1.00;-1.00;103427;1259;1004331;-80
2023/06/07 06:59:13;;;;;;;11.30;10.10;;;;;;;-128.00;-1.00;-1.00;102647;1260;1003925;-80
2023/06/07 07:01:47;;;;;;;13.60;9.20;;;;;;;-128.00;-1.00;-1.00;102525;1260;1003539;-82
2023/06/07 07:04:14;;;;;;;10.20;9.10;;;;;;;-128.00;-1.00;-1.00;102483;1263;1059885;-82
2023/06/07 07:06:41;;;;;;;12.00;10.10;;;;;;;-128.00;-1.00;-1.00;102493;1263;1004083;-82
2023/06/07 07:09:09;;;;;;;11.10;9.80;;;;;;;-128.00;-1.00;-1.00;103057;1263;1005113;-81
2023/06/07 07:11:36;;;;;;;11.50;9.80;;;;;;;-128.00;-1.00;-1.00;102967;1261;1003558;-82
2023/06/07 07:14:02;;;;;;;11.50;10.30;;;;;;;-128.00;-1.00;-1.00;102981;1261;1003881;-83
2023/06/07 07:16:30;;;;;;;13.20;10.30;;;;;;;-128.00;-1.00;-1.00;102989;1264;1004949;-82
2023/06/07 07:18:57;;;;;;;10.60;9.30;;;;;;;-128.00;-1.00;-1.00;102705;1260;1005200;-79
2023/06/07 07:21:23;;;;;;;25.70;21.00;;;;;;;-128.00;-1.00;-1.00;102611;1261;1004758;-82
2023/06/07 07:23:50;;;;;;;65.60;43.30;;;;;;;-128.00;-1.00;-1.00;102714;1260;1004933;-79
2023/06/07 07:26:16;;;;;;;46.90;31.90;;;;;;;-128.00;-1.00;-1.00;102902;1263;1004294;-82
2023/06/07 07:28:42;;;;;;;57.20;33.80;;;;;;;-128.00;-1.00;-1.00;102785;1260;1004562;-81
2023/06/07 07:31:09;;;;;;;22.50;15.10;;;;;;;-128.00;-1.00;-1.00;102743;1261;1005628;-82
2023/06/07 07:33:35;;;;;;;47.00;27.60;;;;;;;-128.00;-1.00;-1.00;102752;1260;1004057;-82
2023/06/07 07:36:02;;;;;;;35.10;19.70;;;;;;;-128.00;-1.00;-1.00;102855;1260;1004638;-79
2023/06/07 07:38:32;;;;;;;19.10;13.30;;;;;;;-128.00;-1.00;-1.00;102777;1257;1005267;-79
2023/06/07 07:40:59;;;;;;;11.50;9.60;;;;;;;-128.00;-1.00;-1.00;102810;1262;1059643;-79
2023/06/07 07:43:25;;;;;;;10.00;8.60;;;;;;;-128.00;-1.00;-1.00;102569;1265;1005110;-82
2023/06/07 07:45:52;;;;;;;21.70;14.40;;;;;;;-128.00;-1.00;-1.00;102878;1263;1005395;-79
2023/06/07 07:48:18;;;;;;;16.20;12.10;;;;;;;-128.00;-1.00;-1.00;102737;1260;1003937;-79
2023/06/07 07:50:44;;;;;;;26.50;17.90;;;;;;;-128.00;-1.00;-1.00;102726;1259;1004460;-79
2023/06/07 07:53:11;;;;;;;22.60;15.60;;;;;;;-128.00;-1.00;-1.00;102761;1259;1004713;-79
2023/06/07 07:55:37;;;;;;;9.60;7.80;;;;;;;-128.00;-1.00;-1.00;102875;1260;1004894;-81
2023/06/07 07:58:04;;;;;;;10.70;7.80;;;;;;;-128.00;-1.00;-1.00;103098;1263;1004563;-82
2023/06/07 08:00:30;;;;;;;7.90;6.70;;;;;;;-128.00;-1.00;-1.00;102961;1261;1004894;-82
2023/06/07 08:02:57;;;;;;;8.20;7.30;;;;;;;-128.00;-1.00;-1.00;102961;1263;1059850;-79
2023/06/07 08:05:23;;;;;;;22.50;13.60;;;;;;;-128.00;-1.00;-1.00;102946;1261;1005489;-79
2023/06/07 08:07:49;;;;;;;15.70;10.40;;;;;;;-128.00;-1.00;-1.00;103076;1260;1005437;-81
2023/06/07 08:10:16;;;;;;;8.00;7.00;;;;;;;-128.00;-1.00;-1.00;102993;1261;1004136;-81
2023/06/07 08:12:42;;;;;;;9.80;6.70;;;;;;;-128.00;-1.00;-1.00;102998;1261;1004663;-81
2023/06/07 08:15:09;;;;;;;11.50;8.40;;;;;;;-128.00;-1.00;-1.00;103023;1257;1004702;-79
2023/06/07 08:17:35;;;;;;;8.40;7.20;;;;;;;-128.00;-1.00;-1.00;103039;1260;1005199;-82
2023/06/07 08:20:04;;;;;;;19.10;11.60;;;;;;;-128.00;-1.00;-1.00;103112;1263;1005146;-81
2023/06/07 08:22:31;;;;;;;;;;;;;;;-128.00;-1.00;-1.00;103103;1260;1063833;-79
2023/06/07 08:24:57;;;;;;;22.10;12.70;;;;;;;-128.00;-1.00;-1.00;103084;1263;1004247;-81
2023/06/07 08:27:23;;;;;;;10.90;8.60;;;;;;;-128.00;-1.00;-1.00;103224;1263;1003803;-81
2023/06/07 08:29:50;;;;;;;13.70;11.60;;;;;;;-128.00;-1.00;-1.00;102994;1259;1006844;-81
2023/06/07 08:32:16;;;;;;;14.40;8.40;;;;;;;-128.00;-1.00;-1.00;103055;1260;1004705;-79
2023/06/07 08:34:43;;;;;;;11.50;8.40;;;;;;;-128.00;-1.00;-1.00;102974;1260;1004631;-78
2023/06/07 08:37:09;;;;;;;17.00;12.00;;;;;;;-128.00;-1.00;-1.00;103010;1261;1006188;-81
2023/06/07 08:39:36;;;;;;;12.30;9.70;;;;;;;-128.00;-1.00;-1.00;102985;1260;1004078;-78
2023/06/07 08:42:03;;;;;;;8.90;6.80;;;;;;;-128.00;-1.00;-1.00;102894;1264;1004633;-81
2023/06/07 08:44:30;;;;;;;14.40;7.80;;;;;;;-128.00;-1.00;-1.00;102944;1262;1005250;-79
2023/06/07 08:46:57;;;;;;;8.20;6.70;;;;;;;-128.00;-1.00;-1.00;103081;1261;1004218;-78
2023/06/07 08:49:26;;;;;;;7.10;5.30;;;;;;;-128.00;-1.00;-1.00;103074;1263;1005990;-81
2023/06/07 08:51:53;;;;;;;6.50;5.40;;;;;;;-128.00;-1.00;-1.00;102943;1260;1062926;-81
2023/06/07 08:54:20;;;;;;;6.60;4.90;;;;;;;-128.00;-1.00;-1.00;102794;1260;1004930;-81
2023/06/07 08:56:47;;;;;;;7.80;5.10;;;;;;;-128.00;-1.00;-1.00;102941;1260;1005003;-81
2023/06/07 08:59:14;;;;;;;6.80;5.00;;;;;;;-128.00;-1.00;-1.00;102888;1260;1004553;-79
2023/06/07 09:01:41;;;;;;;5.70;4.50;;;;;;;-128.00;-1.00;-1.00;103174;1261;1005022;-79
2023/06/07 09:04:07;;;;;;;5.60;4.70;;;;;;;-128.00;-1.00;-1.00;103028;1260;1004854;-81
2023/06/07 09:06:34;;;;;;;7.90;4.50;;;;;;;-128.00;-1.00;-1.00;103099;1259;1004245;-81
2023/06/07 09:09:03;;;;;;;5.70;4.60;;;;;;;-128.00;-1.00;-1.00;103086;1262;1003981;-79
2023/06/07 09:11:30;;;;;;;8.30;4.60;;;;;;;-128.00;-1.00;-1.00;105066;1260;1061936;-79
2023/06/07 09:13:56;;;;;;;4.90;4.30;;;;;;;-128.00;-1.00;-1.00;102986;1260;1003718;-80
2023/06/07 09:16:23;;;;;;;4.80;4.00;;;;;;;-128.00;-1.00;-1.00;103720;1259;1004350;-82
2023/06/07 09:18:53;;;;;;;5.70;4.90;;;;;;;-128.00;-1.00;-1.00;103057;1259;1004229;-82
2023/06/07 09:21:27;;;;;;;7.00;4.20;;;;;;;-128.00;-1.00;-1.00;103020;1260;1047499;-82
2023/06/07 09:23:57;;;;;;;6.00;4.20;;;;;;;-128.00;-1.00;-1.00;103994;1259;1062739;-82
2023/06/07 09:26:25;;;;;;;4.40;3.20;;;;;;;-128.00;-1.00;-1.00;103078;1259;1058457;-82
2023/06/07 09:28:52;;;;;;;4.80;4.30;;;;;;;-128.00;-1.00;-1.00;104645;1260;1004419;-82
2023/06/07 09:31:33;;;;;;;5.40;3.70;;;;;;;-128.00;-1.00;-1.00;102919;1259;1003953;-79
2023/06/07 09:34:17;;;;;;;4.40;4.00;;;;;;;-128.00;-1.00;-1.00;102927;1260;1047935;-80
2023/06/07 09:36:55;;;;;;;7.10;4.10;;;;;;;-128.00;-1.00;-1.00;103064;1264;1063049;-82
2023/06/07 09:39:23;;;;;;;5.30;3.80;;;;;;;-128.00;-1.00;-1.00;103042;1259;1058691;-82
2023/06/07 09:41:54;;;;;;;5.60;3.70;;;;;;;-128.00;-1.00;-1.00;103124;1260;1003994;-79
2023/06/07 09:44:21;;;;;;;6.00;3.70;;;;;;;-128.00;-1.00;-1.00;102967;1263;1047007;-82
2023/06/07 09:46:49;;;;;;;5.30;3.30;;;;;;;-128.00;-1.00;-1.00;103189;1259;1004694;-80
2023/06/07 09:49:25;;;;;;;8.10;4.20;;;;;;;-128.00;-1.00;-1.00;103150;1260;1004418;-79
2023/06/07 09:51:52;;;;;;;5.00;3.70;;;;;;;-128.00;-1.00;-1.00;103020;1259;1058641;-80
2023/06/07 09:54:33;;;;;;;5.90;4.70;;;;;;;-128.00;-1.00;-1.00;103057;1259;1004261;-82
2023/06/07 09:56:59;;;;;;;7.30;4.90;;;;;;;-128.00;-1.00;-1.00;103036;1261;1046502;-80
2023/06/07 09:59:26;;;;;;;9.20;5.20;;;;;;;-128.00;-1.00;-1.00;103271;1260;1004972;-80
2023/06/07 10:01:52;;;;;;;6.40;4.40;;;;;;;-128.00;-1.00;-1.00;103385;1259;1003693;-80
2023/06/07 10:04:19;;;;;;;8.20;5.40;;;;;;;-128.00;-1.00;-1.00;103237;1261;1004029;-79
2023/06/07 10:06:45;;;;;;;4.70;3.20;;;;;;;-128.00;-1.00;-1.00;103249;1261;1003967;-80
2023/06/07 10:09:12;;;;;;;5.50;2.90;;;;;;;-128.00;-1.00;-1.00;102458;1263;1004889;-77
2023/06/07 10:11:39;;;;;;;2.90;2.20;;;;;;;-128.00;-1.00;-1.00;102554;1260;1004251;-80
2023/06/07 10:14:09;;;;;;;5.40;2.50;;;;;;;-128.00;-1.00;-1.00;102375;1261;1005265;-77
2023/06/07 10:16:39;;;;;;;3.40;2.10;;;;;;;-128.00;-1.00;-1.00;102571;1264;1060588;-77
2023/06/07 10:19:20;;;;;;;6.30;2.80;;;;;;;-128.00;-1.00;-1.00;102451;1264;1061109;-77
2023/06/07 10:21:48;;;;;;;3.10;2.80;;;;;;;-128.00;-1.00;-1.00;103139;1264;1047188;-83
2023/06/07 10:24:18;;;;;;;7.70;2.50;;;;;;;-128.00;-1.00;-1.00;103051;1263;1005220;-80
2023/06/07 10:26:53;;;;;;;3.70;3.20;;;;;;;-128.00;-1.00;-1.00;103089;1259;1063637;-82
2023/06/07 10:29:44;;;;;;;5.20;3.70;;;;;;;-128.00;-1.00;-1.00;102763;1259;1060864;-80
2023/06/07 10:32:17;;;;;;;7.10;3.90;;;;;;;-128.00;-1.00;-1.00;102875;1259;1060987;-83
2023/06/07 10:34:43;;;;;;;6.10;3.30;;;;;;;-128.00;-1.00;-1.00;103031;1259;1045091;-83
2023/06/07 10:37:10;;;;;;;6.10;4.10;;;;;;;-128.00;-1.00;-1.00;103055;1259;1005400;-80
2023/06/07 10:39:38;;;;;;;4.20;3.00;;;;;;;-128.00;-1.00;-1.00;102833;1259;1003865;-82
2023/06/07 10:42:05;;;;;;;5.00;2.90;;;;;;;-128.00;-1.00;-1.00;102994;1259;1004817;-82
2023/06/07 10:44:32;;;;;;;5.40;2.80;;;;;;;-128.00;-1.00;-1.00;102860;1259;1004995;-82
2023/06/07 10:47:20;;;;;;;4.60;3.20;;;;;;;-128.00;-1.00;-1.00;102886;1259;1004431;-80
2023/06/07 10:49:47;;;;;;;7.10;3.40;;;;;;;-128.00;-1.00;-1.00;102998;1259;1047323;-82
2023/06/07 10:52:15;;;;;;;4.50;3.70;;;;;;;-128.00;-1.00;-1.00;102994;1261;1004971;-83
2023/06/07 10:54:42;;;;;;;8.00;3.50;;;;;;;-128.00;-1.00;-1.00;103036;1263;1005216;-80
2023/06/07 10:57:09;;;;;;;4.80;4.00;;;;;;;-128.00;-1.00;-1.00;103015;1261;1004319;-83
2023/06/07 10:59:36;;;;;;;6.80;4.30;;;;;;;-128.00;-1.00;-1.00;103124;1258;1004439;-79
2023/06/07 11:02:19;;;;;;;5.30;3.90;;;;;;;-128.00;-1.00;-1.00;102941;1264;1005119;-83
2023/06/07 11:04:56;;;;;;;5.00;3.80;;;;;;;-128.00;-1.00;-1.00;102940;1259;1062149;-82
2023/06/07 11:07:31;;;;;;;5.40;4.30;;;;;;;-128.00;-1.00;-1.00;103160;1259;1057690;-82
2023/06/07 11:10:02;;;;;;;4.30;3.90;;;;;;;-128.00;-1.00;-1.00;102959;1264;1059909;-82